createdAt,value
2023-03-02T00:02:01.132Z,30.75
2023-03-02T00:04:12.545Z,28.73
2023-03-02T00:06:20.438Z,34.42
2023-03-02T00:08:30.404Z,29.90
2023-03-02T00:10:38.986Z,30.52
2023-03-02T00:12:47.285Z,34.13
2023-03-02T00:14:55.223Z,27.42
2023-03-02T00:17:05.866Z,29.52
2023-03-02T00:19:22.559Z,31.02
2023-03-02T00:21:31.837Z,31.05
2023-03-02T00:23:48.711Z,35.67
2023-03-02T00:26:03.734Z,31.00
2023-03-02T00:28:12.700Z,35.05
2023-03-02T00:30:20.879Z,30.85
2023-03-02T00:32:31.874Z,31.98
2023-03-02T00:34:40.076Z,29.65
2023-03-02T00:36:49.756Z,33.55
2023-03-02T00:38:57.956Z,32.33
2023-03-02T00:41:06.261Z,31.02
2023-03-02T00:43:14.356Z,31.40
2023-03-02T00:45:22.129Z,31.00
2023-03-02T00:47:32.714Z,31.65
2023-03-02T00:49:40.684Z,35.75
2023-03-02T00:51:48.555Z,35.95
2023-03-02T00:53:56.508Z,34.13
2023-03-02T00:56:04.387Z,32.63
2023-03-02T00:58:29.003Z,37.30
2023-03-02T01:00:40.357Z,33.63
2023-03-02T01:02:51.901Z,36.08
2023-03-02T01:05:00.415Z,32.80
2023-03-02T01:07:11.081Z,34.28
2023-03-02T01:09:18.926Z,32.90
2023-03-02T01:11:26.814Z,36.20
2023-03-02T01:13:36.507Z,34.80
2023-03-02T01:15:44.543Z,34.15
2023-03-02T01:17:55.622Z,34.63
2023-03-02T01:20:04.668Z,38.13
2023-03-02T01:22:13.226Z,32.15
2023-03-02T01:24:21.055Z,35.78
2023-03-02T01:26:29.031Z,37.45
2023-03-02T01:28:37.132Z,35.80
2023-03-02T01:30:45.304Z,35.50
2023-03-02T01:32:55.837Z,37.25
2023-03-02T01:35:03.707Z,43.67
2023-03-02T01:37:11.763Z,38.78
2023-03-02T01:39:22.446Z,40.13
2023-03-02T01:41:30.574Z,31.15
2023-03-02T01:43:38.608Z,33.60
2023-03-02T01:45:57.151Z,36.10
2023-03-02T01:48:29.453Z,36.78
2023-03-02T01:50:37.624Z,37.15
2023-03-02T01:52:46.085Z,34.17
2023-03-02T01:54:56.519Z,36.88
2023-03-02T01:57:06.767Z,42.45
2023-03-02T01:59:18.559Z,35.05
2023-03-02T02:01:26.460Z,41.72
2023-03-02T02:03:37.302Z,35.70
2023-03-02T02:05:49.244Z,35.63
2023-03-02T02:07:58.446Z,37.15
2023-03-02T02:10:08.303Z,35.80
2023-03-02T02:12:18.502Z,34.53
2023-03-02T02:14:33.356Z,36.47
2023-03-02T02:16:47.704Z,36.45
2023-03-02T02:18:59.017Z,34.42
2023-03-02T02:21:07.809Z,34.70
2023-03-02T02:23:31.837Z,32.40
2023-03-02T02:25:47.899Z,35.17
2023-03-02T02:28:00.117Z,37.03
2023-03-02T02:30:11.893Z,36.13
2023-03-02T02:32:23.125Z,35.90
2023-03-02T02:34:35.086Z,38.58
2023-03-02T02:36:46.414Z,38.30
2023-03-02T02:38:59.465Z,35.08
2023-03-02T02:41:10.940Z,34.92
2023-03-02T02:43:24.183Z,32.75
2023-03-02T02:45:32.973Z,36.22
2023-03-02T02:47:41.745Z,33.38
2023-03-02T02:49:51.948Z,36.10
2023-03-02T02:52:01.695Z,32.60
2023-03-02T02:54:09.798Z,43.97
2023-03-02T02:56:19.464Z,34.30
2023-03-02T02:58:36.034Z,39.30
2023-03-02T03:00:43.952Z,42.28
2023-03-02T03:02:56.829Z,33.05
2023-03-02T03:05:05.353Z,37.00
2023-03-02T03:07:21.589Z,36.58
2023-03-02T03:09:31.065Z,34.90
2023-03-02T03:11:42.684Z,38.78
2023-03-02T03:13:57.828Z,38.55
2023-03-02T03:16:06.532Z,34.25
2023-03-02T03:18:14.364Z,34.90
2023-03-02T03:20:23.337Z,38.35
2023-03-02T03:22:31.333Z,35.85
2023-03-02T03:24:39.403Z,41.47
2023-03-02T03:26:48.391Z,37.05
2023-03-02T03:29:00.203Z,39.38
2023-03-02T03:31:08.322Z,39.22
2023-03-02T03:33:16.148Z,39.80
2023-03-02T03:35:23.953Z,41.33
2023-03-02T03:37:32.719Z,42.83
2023-03-02T03:39:41.448Z,39.97
2023-03-02T03:41:49.834Z,39.45
2023-03-02T03:44:01.027Z,41.50
2023-03-02T03:46:11.058Z,39.35
2023-03-02T03:48:18.982Z,35.42
2023-03-02T03:50:28.869Z,40.00
2023-03-02T03:52:37.471Z,35.92
2023-03-02T03:55:03.756Z,40.63
2023-03-02T03:57:12.284Z,36.97
2023-03-02T03:59:26.371Z,45.58
2023-03-02T04:01:39.387Z,41.72
2023-03-02T04:03:47.546Z,40.53
2023-03-02T04:05:55.930Z,42.92
2023-03-02T04:08:04.451Z,36.53
2023-03-02T04:10:14.728Z,43.58
2023-03-02T04:12:24.115Z,41.85
2023-03-02T04:14:36.757Z,39.47
2023-03-02T04:16:45.688Z,43.85
2023-03-02T04:18:53.992Z,40.78
2023-03-02T04:21:02.510Z,38.80
2023-03-02T04:23:10.407Z,45.25
2023-03-02T04:25:21.429Z,48.63
2023-03-02T04:27:31.401Z,47.35
2023-03-02T04:29:43.955Z,39.10
2023-03-02T04:31:52.781Z,42.17
2023-03-02T04:34:04.423Z,42.30
2023-03-02T04:36:13.803Z,39.95
2023-03-02T04:38:21.837Z,43.95
2023-03-02T04:40:29.798Z,43.17
2023-03-02T04:42:38.180Z,40.88
2023-03-02T04:44:48.871Z,40.33
2023-03-02T04:46:56.838Z,39.00
2023-03-02T04:49:04.995Z,41.88
2023-03-02T04:51:24.294Z,38.22
2023-03-02T04:53:32.543Z,39.85
2023-03-02T04:55:40.587Z,37.90
2023-03-02T04:57:48.457Z,41.95
2023-03-02T04:59:58.974Z,39.90
2023-03-02T05:02:07.243Z,36.83
2023-03-02T05:04:18.014Z,42.55
2023-03-02T05:06:26.302Z,40.65
2023-03-02T05:08:34.796Z,37.10
2023-03-02T05:10:42.777Z,36.22
2023-03-02T05:13:02.755Z,44.20
2023-03-02T05:15:19.939Z,41.33
2023-03-02T05:17:28.487Z,49.70
2023-03-02T05:19:36.736Z,46.67
2023-03-02T05:21:44.980Z,39.60
2023-03-02T05:23:52.844Z,38.00
2023-03-02T05:26:01.061Z,38.67
2023-03-02T05:28:09.253Z,40.67
2023-03-02T05:30:20.937Z,38.42
2023-03-02T05:32:28.991Z,37.28
2023-03-02T05:34:37.057Z,37.40
2023-03-02T05:36:45.471Z,39.55
2023-03-02T05:38:53.565Z,42.88
2023-03-02T05:41:11.572Z,41.20
2023-03-02T05:43:23.673Z,34.00
2023-03-02T05:45:37.853Z,39.85
2023-03-02T05:47:45.709Z,36.63
2023-03-02T05:49:53.445Z,41.08
2023-03-02T05:52:01.478Z,37.85
2023-03-02T05:54:09.205Z,36.60
2023-03-02T05:56:17.430Z,36.45
2023-03-02T05:58:25.439Z,38.90
2023-03-02T06:00:36.300Z,38.13
2023-03-02T06:02:44.753Z,37.83
2023-03-02T06:04:52.632Z,36.28
2023-03-02T06:07:00.446Z,37.88
2023-03-02T06:09:08.260Z,35.72
2023-03-02T06:11:16.201Z,36.63
2023-03-02T06:13:24.198Z,37.72
2023-03-02T06:15:32.129Z,36.97
2023-03-02T06:17:42.652Z,41.95
2023-03-02T06:19:50.493Z,37.25
2023-03-02T06:21:58.424Z,36.40
2023-03-02T06:24:09.360Z,40.80
2023-03-02T06:26:17.157Z,38.20
2023-03-02T06:28:25.022Z,36.03
2023-03-02T06:30:33.316Z,36.13
2023-03-02T06:32:44.224Z,35.45
2023-03-02T06:34:52.067Z,35.42
2023-03-02T06:37:00.335Z,34.67
2023-03-02T06:39:08.633Z,37.17
2023-03-02T06:41:16.644Z,36.13
2023-03-02T06:43:24.519Z,38.95
2023-03-02T06:45:34.029Z,34.80
2023-03-02T06:47:44.695Z,33.72
2023-03-02T06:49:52.851Z,35.15
2023-03-02T06:52:00.758Z,36.72
2023-03-02T06:54:09.973Z,36.00
2023-03-02T06:56:17.848Z,33.65
2023-03-02T06:58:25.646Z,34.97
2023-03-02T07:00:33.568Z,31.98
2023-03-02T07:02:44.062Z,37.53
2023-03-02T07:04:52.003Z,32.72
2023-03-02T07:07:00.205Z,33.13
2023-03-02T07:09:08.288Z,39.90
2023-03-02T07:11:16.139Z,34.50
2023-03-02T07:13:24.121Z,37.60
2023-03-02T07:15:32.178Z,35.60
2023-03-02T07:17:40.295Z,37.47
2023-03-02T07:19:50.858Z,33.80
2023-03-02T07:21:58.613Z,40.85
2023-03-02T07:24:06.702Z,37.95
2023-03-02T07:26:14.871Z,36.65
2023-03-02T07:28:24.342Z,35.17
2023-03-02T07:30:32.263Z,39.83
2023-03-02T07:32:40.285Z,36.72
2023-03-02T07:34:50.924Z,37.53
2023-03-02T07:36:58.755Z,38.55
2023-03-02T07:39:07.207Z,39.85
2023-03-02T07:41:16.851Z,35.20
2023-03-02T07:43:26.764Z,33.75
2023-03-02T07:45:37.833Z,36.13
2023-03-02T07:47:45.637Z,34.08
2023-03-02T07:49:56.604Z,42.05
2023-03-02T07:52:04.808Z,35.50
2023-03-02T07:54:12.902Z,39.35
2023-03-02T07:56:21.090Z,40.17
2023-03-02T07:58:28.982Z,39.97
2023-03-02T08:00:37.006Z,39.38
2023-03-02T08:02:46.168Z,38.75
2023-03-02T08:04:57.068Z,32.10
2023-03-02T08:07:04.918Z,31.35
2023-03-02T08:09:14.124Z,35.67
2023-03-02T08:11:23.610Z,32.22
2023-03-02T08:13:31.536Z,37.95
2023-03-02T08:15:39.359Z,34.33
2023-03-02T08:17:47.293Z,32.72
2023-03-02T08:19:58.134Z,35.47
2023-03-02T08:22:06.313Z,31.05
2023-03-02T08:24:14.913Z,28.60
2023-03-02T08:26:24.663Z,29.02
2023-03-02T08:28:32.790Z,29.30
2023-03-02T08:30:40.923Z,32.03
2023-03-02T08:32:48.895Z,31.30
2023-03-02T08:34:59.333Z,28.05
2023-03-02T08:37:07.676Z,32.22
2023-03-02T08:39:15.984Z,30.90
2023-03-02T08:41:26.376Z,30.63
2023-03-02T08:43:34.140Z,28.52
2023-03-02T08:45:42.290Z,28.88
2023-03-02T08:47:50.162Z,29.15
2023-03-02T08:50:01.289Z,34.38
2023-03-02T08:52:09.169Z,30.02
2023-03-02T08:54:17.001Z,33.22
2023-03-02T08:56:26.599Z,31.45
2023-03-02T08:58:34.591Z,31.85
2023-03-02T09:00:42.921Z,29.90
2023-03-02T09:02:50.787Z,27.95
2023-03-02T09:05:01.710Z,30.20
2023-03-02T09:07:09.685Z,31.60
2023-03-02T09:09:18.102Z,27.90
2023-03-02T09:11:25.938Z,28.75
2023-03-02T09:13:34.254Z,28.33
2023-03-02T09:15:42.152Z,31.67
2023-03-02T09:17:50.381Z,29.33
2023-03-02T09:20:00.497Z,29.00
2023-03-02T09:22:11.819Z,28.83
2023-03-02T09:24:19.644Z,30.02
2023-03-02T09:26:28.082Z,31.45
2023-03-02T09:28:36.210Z,29.77
2023-03-02T09:30:44.479Z,36.17
2023-03-02T09:32:52.427Z,30.33
2023-03-02T09:35:00.415Z,31.17
2023-03-02T09:37:11.123Z,27.52
2023-03-02T09:39:19.616Z,31.33
2023-03-02T09:41:58.342Z,27.75
2023-03-02T09:44:20.537Z,27.58
2023-03-02T09:46:33.512Z,29.35
2023-03-02T09:48:49.933Z,28.25
2023-03-02T09:51:15.032Z,31.65
2023-03-02T09:53:37.760Z,30.85
2023-03-02T09:55:59.303Z,31.88
2023-03-02T09:58:09.065Z,30.30
2023-03-02T10:00:20.574Z,31.55
2023-03-02T10:02:32.580Z,30.10
2023-03-02T10:04:46.672Z,28.08
2023-03-02T10:06:59.703Z,25.45
2023-03-02T10:09:13.085Z,25.90
2023-03-02T10:11:28.150Z,22.95
2023-03-02T10:13:47.613Z,23.85
2023-03-02T10:16:08.333Z,23.40
2023-03-02T10:18:23.655Z,23.85
2023-03-02T10:20:37.373Z,27.77
2023-03-02T10:22:51.425Z,26.95
2023-03-02T10:25:17.348Z,29.88
2023-03-02T10:27:29.515Z,26.13
2023-03-02T10:29:48.169Z,26.17
2023-03-02T10:32:02.151Z,25.98
2023-03-02T10:34:13.482Z,26.63
2023-03-02T10:36:26.646Z,25.63
2023-03-02T10:38:37.966Z,23.58
2023-03-02T10:40:53.027Z,23.75
2023-03-02T10:43:01.680Z,25.33
2023-03-02T10:45:22.613Z,24.88
2023-03-02T10:47:32.319Z,25.85
2023-03-02T10:49:45.272Z,23.98
2023-03-02T10:51:59.760Z,26.17
2023-03-02T10:54:10.129Z,23.60
2023-03-02T10:56:24.526Z,23.65
2023-03-02T10:58:34.820Z,26.13
2023-03-02T11:00:42.822Z,26.90
2023-03-02T11:02:55.433Z,27.75
2023-03-02T11:05:24.761Z,24.15
2023-03-02T11:07:32.913Z,22.98
2023-03-02T11:09:40.944Z,23.83
2023-03-02T11:12:01.065Z,26.23
2023-03-02T11:14:13.231Z,23.85
2023-03-02T11:16:27.175Z,31.38
2023-03-02T11:18:39.806Z,24.90
2023-03-02T11:20:51.361Z,24.20
2023-03-02T11:23:28.390Z,25.08
2023-03-02T11:25:41.164Z,27.38
2023-03-02T11:27:58.090Z,23.77
2023-03-02T11:30:12.140Z,24.58
2023-03-02T11:32:28.012Z,25.95
2023-03-02T11:34:43.808Z,25.38
2023-03-02T11:37:05.281Z,28.58
2023-03-02T11:39:22.121Z,23.83
2023-03-02T11:41:32.767Z,26.13
2023-03-02T11:43:43.528Z,22.55
2023-03-02T11:45:59.973Z,24.30
2023-03-02T11:48:11.977Z,24.42
2023-03-02T11:50:20.285Z,24.85
2023-03-02T11:52:33.082Z,22.08
2023-03-02T11:54:47.445Z,24.70
2023-03-02T11:56:55.753Z,26.70
2023-03-02T11:59:09.958Z,27.60
2023-03-02T12:01:22.743Z,27.42
2023-03-02T12:03:45.011Z,23.70
2023-03-02T12:06:05.915Z,27.30
2023-03-02T12:08:34.499Z,24.30
2023-03-02T12:10:45.586Z,26.67
2023-03-02T12:13:09.386Z,24.17
2023-03-02T12:15:39.006Z,26.30
2023-03-02T12:17:46.881Z,27.42
2023-03-02T12:19:56.632Z,28.63
2023-03-02T12:22:09.147Z,22.48
2023-03-02T12:24:28.418Z,26.25
2023-03-02T12:26:38.738Z,24.58
2023-03-02T12:28:46.792Z,23.70
2023-03-02T12:31:06.348Z,27.35
2023-03-02T12:33:24.360Z,25.33
2023-03-02T12:35:34.534Z,23.23
2023-03-02T12:37:48.952Z,22.13
2023-03-02T12:40:38.476Z,21.58
2023-03-02T12:43:16.494Z,28.88
2023-03-02T12:45:44.385Z,22.25
2023-03-02T12:48:03.915Z,21.90
2023-03-02T12:50:22.317Z,22.80
2023-03-02T12:52:32.356Z,23.10
2023-03-02T12:54:40.691Z,26.40
2023-03-02T12:56:49.894Z,25.25
2023-03-02T12:58:58.433Z,25.15
2023-03-02T13:01:07.172Z,25.67
2023-03-02T13:03:18.895Z,26.13
2023-03-02T13:05:29.197Z,26.65
2023-03-02T13:07:41.345Z,23.48
2023-03-02T13:09:57.290Z,24.35
2023-03-02T13:12:05.544Z,23.60
2023-03-02T13:14:23.093Z,27.67
2023-03-02T13:16:33.833Z,27.10
2023-03-02T13:18:44.627Z,24.08
2023-03-02T13:20:53.976Z,24.40
2023-03-02T13:23:02.151Z,21.98
2023-03-02T13:25:25.077Z,20.88
2023-03-02T13:27:34.119Z,24.27
2023-03-02T13:29:41.982Z,24.63
2023-03-02T13:31:50.436Z,19.75
2023-03-02T13:34:01.730Z,26.83
2023-03-02T13:36:10.541Z,26.27
2023-03-02T13:38:21.415Z,26.25
2023-03-02T13:40:44.889Z,25.55
2023-03-02T13:42:52.716Z,23.98
2023-03-02T13:45:00.408Z,22.58
2023-03-02T13:47:08.275Z,22.80
2023-03-02T13:49:30.187Z,21.50
2023-03-02T13:51:40.825Z,19.98
2023-03-02T13:53:55.497Z,21.02
2023-03-02T13:56:03.629Z,20.60
2023-03-02T13:58:17.498Z,23.65
2023-03-02T14:00:30.596Z,20.80
2023-03-02T14:02:38.575Z,22.48
2023-03-02T14:04:50.981Z,21.83
2023-03-02T14:06:58.829Z,19.75
2023-03-02T14:09:07.222Z,22.83
2023-03-02T14:11:16.973Z,21.33
2023-03-02T14:13:28.264Z,22.17
2023-03-02T14:15:37.217Z,19.70
2023-03-02T14:17:45.613Z,22.00
2023-03-02T14:19:56.615Z,21.63
2023-03-02T14:22:04.365Z,23.75
2023-03-02T14:24:13.195Z,26.50
2023-03-02T14:26:32.976Z,22.17
2023-03-02T14:28:44.047Z,20.52
2023-03-02T14:30:55.433Z,23.85
2023-03-02T14:33:03.184Z,25.30
2023-03-02T14:35:16.821Z,27.23
2023-03-02T14:37:30.356Z,26.13
2023-03-02T14:39:40.402Z,22.77
2023-03-02T14:41:53.690Z,24.27
2023-03-02T14:44:02.589Z,23.15
2023-03-02T14:46:10.544Z,24.95
2023-03-02T14:48:18.561Z,25.67
2023-03-02T14:50:29.053Z,25.00
2023-03-02T14:52:41.660Z,23.02
2023-03-02T14:54:54.086Z,25.45
2023-03-02T14:57:02.099Z,23.67
2023-03-02T14:59:15.352Z,20.33
2023-03-02T15:01:24.530Z,23.13
2023-03-02T15:03:32.469Z,21.88
2023-03-02T15:05:51.657Z,20.60
2023-03-02T15:08:07.775Z,21.35
2023-03-02T15:10:17.892Z,22.10
2023-03-02T15:12:25.895Z,21.75
2023-03-02T15:14:34.915Z,22.70
2023-03-02T15:16:42.936Z,21.33
2023-03-02T15:18:52.288Z,26.80
2023-03-02T15:21:02.857Z,21.90
2023-03-02T15:23:10.723Z,24.17
2023-03-02T15:25:18.762Z,23.90
2023-03-02T15:27:26.904Z,21.30
2023-03-02T15:29:34.759Z,24.60
2023-03-02T15:31:42.895Z,25.85
2023-03-02T15:33:52.175Z,23.77
2023-03-02T15:36:02.889Z,23.83
2023-03-02T15:38:10.917Z,25.25
2023-03-02T15:40:19.219Z,22.73
2023-03-02T15:42:27.339Z,21.90
2023-03-02T15:44:35.589Z,27.50
2023-03-02T15:46:43.493Z,26.98
2023-03-02T15:48:52.114Z,22.65
2023-03-02T15:51:04.903Z,25.52
2023-03-02T15:53:12.958Z,24.33
2023-03-02T15:55:21.178Z,23.27
2023-03-02T15:57:29.059Z,24.55
2023-03-02T15:59:37.132Z,32.80
2023-03-02T16:01:45.092Z,25.88
2023-03-02T16:03:54.162Z,25.38
2023-03-02T16:06:04.762Z,23.80
2023-03-02T16:08:12.884Z,25.77
2023-03-02T16:10:21.313Z,25.60
2023-03-02T16:12:29.286Z,22.90
2023-03-02T16:14:37.217Z,25.30
2023-03-02T16:16:45.149Z,23.17
2023-03-02T16:18:53.970Z,20.40
2023-03-02T16:21:05.362Z,24.45
2023-03-02T16:23:16.104Z,22.85
2023-03-02T16:25:25.059Z,27.73
2023-03-02T16:27:33.299Z,23.88
2023-03-02T16:29:41.287Z,23.17
2023-03-02T16:31:49.346Z,27.95
2023-03-02T16:33:59.161Z,26.27
2023-03-02T16:36:11.625Z,24.65
2023-03-02T16:38:19.900Z,22.92
2023-03-02T16:40:28.246Z,27.98
2023-03-02T16:42:36.194Z,25.60
2023-03-02T16:44:46.042Z,26.35
2023-03-02T16:46:56.320Z,28.33
2023-03-02T16:49:06.024Z,27.88
2023-03-02T16:51:16.742Z,25.90
2023-03-02T16:53:24.731Z,23.10
2023-03-02T16:55:33.213Z,23.35
2023-03-02T16:57:41.384Z,26.73
2023-03-02T16:59:49.583Z,28.90
2023-03-02T17:01:57.529Z,28.92
2023-03-02T17:04:06.189Z,36.47
2023-03-02T17:06:18.621Z,29.33
2023-03-02T17:08:26.423Z,28.48
2023-03-02T17:10:34.296Z,39.15
2023-03-02T17:12:42.428Z,34.40
2023-03-02T17:14:50.407Z,31.23
2023-03-02T17:16:59.219Z,31.92
2023-03-02T17:19:07.086Z,33.35
2023-03-02T17:21:19.303Z,32.05
2023-03-02T17:23:28.341Z,34.25
2023-03-02T17:25:36.654Z,34.45
2023-03-02T17:27:44.978Z,35.17
2023-03-02T17:29:52.922Z,41.15
2023-03-02T17:32:01.205Z,36.55
2023-03-02T17:34:09.038Z,33.85
2023-03-02T17:36:24.304Z,35.03
2023-03-02T17:38:32.676Z,38.80
2023-03-02T17:40:41.188Z,33.85
2023-03-02T17:42:49.300Z,32.67
2023-03-02T17:44:57.432Z,32.40
2023-03-02T17:47:06.870Z,32.25
2023-03-02T17:49:15.417Z,37.25
2023-03-02T17:51:28.191Z,36.42
2023-03-02T17:53:36.458Z,34.13
2023-03-02T17:55:44.590Z,33.55
2023-03-02T17:57:52.778Z,35.30
2023-03-02T18:00:01.339Z,35.90
2023-03-02T18:02:09.366Z,33.83
2023-03-02T18:04:18.925Z,35.45
2023-03-02T18:06:31.080Z,39.53
2023-03-02T18:08:39.872Z,35.33
2023-03-02T18:10:48.285Z,35.92
2023-03-02T18:12:57.100Z,34.17
2023-03-02T18:15:05.633Z,35.60
2023-03-02T18:17:15.148Z,36.58
2023-03-02T18:19:23.275Z,34.10
2023-03-02T18:21:34.611Z,38.47
2023-03-02T18:23:42.723Z,33.15
2023-03-02T18:25:53.126Z,36.50
2023-03-02T18:28:01.446Z,36.58
2023-03-02T18:30:10.952Z,41.28
2023-03-02T18:32:19.111Z,34.25
2023-03-02T18:34:27.078Z,35.20
2023-03-02T18:36:38.055Z,38.67
2023-03-02T18:38:46.458Z,36.38
2023-03-02T18:40:54.461Z,36.05
2023-03-02T18:43:02.973Z,38.78
2023-03-02T18:45:13.794Z,38.67
2023-03-02T18:47:22.041Z,34.72
2023-03-02T18:49:30.867Z,32.25
2023-03-02T18:51:41.538Z,38.60
2023-03-02T18:53:49.941Z,36.15
2023-03-02T18:55:58.672Z,37.67
2023-03-02T18:58:06.972Z,41.40
2023-03-02T19:00:21.679Z,42.20
2023-03-02T19:02:29.788Z,37.17
2023-03-02T19:04:38.052Z,36.75
2023-03-02T19:06:48.781Z,38.03
2023-03-02T19:08:57.203Z,38.83
2023-03-02T19:11:06.151Z,36.17
2023-03-02T19:13:15.700Z,42.17
2023-03-02T19:15:25.130Z,34.97
2023-03-02T19:17:33.049Z,39.15
2023-03-02T19:19:43.456Z,38.47
2023-03-02T19:21:54.329Z,40.90
2023-03-02T19:24:02.252Z,37.35
2023-03-02T19:26:11.164Z,36.33
2023-03-02T19:28:19.319Z,39.50
2023-03-02T19:30:29.007Z,41.45
2023-03-02T19:32:37.118Z,37.85
2023-03-02T19:34:45.406Z,39.42
2023-03-02T19:36:58.332Z,37.33
2023-03-02T19:39:06.521Z,39.42
2023-03-02T19:41:17.397Z,45.95
2023-03-02T19:43:30.288Z,39.95
2023-03-02T19:45:44.104Z,37.92
2023-03-02T19:47:52.314Z,39.95
2023-03-02T19:50:00.320Z,36.55
2023-03-02T19:52:11.184Z,40.10
2023-03-02T19:54:20.719Z,45.72
2023-03-02T19:56:33.101Z,45.97
2023-03-02T19:58:47.197Z,41.42
2023-03-02T20:00:55.162Z,42.42
2023-03-02T20:03:03.209Z,38.88
2023-03-02T20:05:13.626Z,39.03
2023-03-02T20:07:24.148Z,41.08
2023-03-02T20:09:32.074Z,41.00
2023-03-02T20:11:40.124Z,37.17
2023-03-02T20:13:48.403Z,37.80
2023-03-02T20:15:56.621Z,40.47
2023-03-02T20:18:05.464Z,37.78
2023-03-02T20:20:15.447Z,37.72
2023-03-02T20:22:26.180Z,44.75
2023-03-02T20:24:34.092Z,40.45
2023-03-02T20:26:42.041Z,36.67
2023-03-02T20:28:50.577Z,36.58
2023-03-02T20:31:01.441Z,40.05
2023-03-02T20:33:11.523Z,42.83
2023-03-02T20:35:19.490Z,41.75
2023-03-02T20:37:30.188Z,40.63
2023-03-02T20:39:40.176Z,40.22
2023-03-02T20:41:49.095Z,43.45
2023-03-02T20:43:57.275Z,47.55
2023-03-02T20:46:05.870Z,42.42
2023-03-02T20:48:14.304Z,45.13
2023-03-02T20:50:27.942Z,34.75
2023-03-02T20:52:39.961Z,42.97
2023-03-02T20:54:48.166Z,41.13
2023-03-02T20:56:56.878Z,42.25
2023-03-02T20:59:04.855Z,40.42
2023-03-02T21:01:14.793Z,42.05
2023-03-02T21:03:22.838Z,41.58
2023-03-02T21:05:32.605Z,48.28
2023-03-02T21:07:43.363Z,42.88
2023-03-02T21:09:51.241Z,49.15
2023-03-02T21:11:59.964Z,49.13
2023-03-02T21:14:08.673Z,41.08
2023-03-02T21:16:20.157Z,45.88
2023-03-02T21:18:28.056Z,43.75
2023-03-02T21:20:39.207Z,44.20
2023-03-02T21:22:49.814Z,42.00
2023-03-02T21:24:57.598Z,44.22
2023-03-02T21:27:07.296Z,46.67
2023-03-02T21:29:16.834Z,49.33
2023-03-02T21:31:24.698Z,43.95
2023-03-02T21:33:32.533Z,45.78
2023-03-02T21:35:40.955Z,45.28
2023-03-02T21:37:52.940Z,43.95
2023-03-02T21:40:01.432Z,42.22
2023-03-02T21:42:09.293Z,44.60
2023-03-02T21:44:17.075Z,42.22
2023-03-02T21:46:26.279Z,44.72
2023-03-02T21:48:34.226Z,44.78
2023-03-02T21:50:42.454Z,40.47
2023-03-02T21:52:53.437Z,40.45
2023-03-02T21:55:01.476Z,41.00
2023-03-02T21:57:09.818Z,46.53
2023-03-02T21:59:17.760Z,47.10
2023-03-02T22:01:26.067Z,48.25
2023-03-02T22:03:34.138Z,47.03
2023-03-02T22:05:42.971Z,45.70
2023-03-02T22:07:53.633Z,45.63
2023-03-02T22:10:01.577Z,49.35
2023-03-02T22:12:14.891Z,45.20
2023-03-02T22:14:23.727Z,41.42
2023-03-02T22:16:38.228Z,43.17
2023-03-02T22:18:47.571Z,42.55
2023-03-02T22:20:55.522Z,52.15
2023-03-02T22:23:13.225Z,51.05
2023-03-02T22:25:22.613Z,47.38
2023-03-02T22:27:34.390Z,48.42
2023-03-02T22:29:45.889Z,47.10
2023-03-02T22:31:55.856Z,47.60
2023-03-02T22:34:03.826Z,45.30
2023-03-02T22:36:21.848Z,48.75
2023-03-02T22:38:33.745Z,47.03
2023-03-02T22:40:42.972Z,48.58
2023-03-02T22:42:50.888Z,45.03
2023-03-02T22:45:04.889Z,42.17
2023-03-02T22:47:18.734Z,46.55
2023-03-02T22:49:26.515Z,50.03
2023-03-02T22:51:37.130Z,44.55
2023-03-02T22:53:51.318Z,51.85
2023-03-02T22:56:01.510Z,47.38
2023-03-02T22:58:34.738Z,46.03
2023-03-02T23:00:43.462Z,51.95
2023-03-02T23:02:51.527Z,49.10
2023-03-02T23:04:59.739Z,46.75
2023-03-02T23:07:19.065Z,49.15
2023-03-02T23:09:31.968Z,49.60
2023-03-02T23:11:42.337Z,53.92
2023-03-02T23:13:51.047Z,46.58
2023-03-02T23:15:59.022Z,46.80
2023-03-02T23:18:17.767Z,48.20
2023-03-02T23:20:26.204Z,44.65
2023-03-02T23:22:34.182Z,48.78
2023-03-02T23:24:44.717Z,44.78
2023-03-02T23:26:53.469Z,44.45
2023-03-02T23:29:01.444Z,44.80
2023-03-02T23:31:09.391Z,46.90
2023-03-02T23:33:17.410Z,46.55
2023-03-02T23:35:25.203Z,46.67
2023-03-02T23:37:33.246Z,47.70
2023-03-02T23:39:41.052Z,45.40
2023-03-02T23:41:51.767Z,53.03
2023-03-02T23:43:59.844Z,48.58
2023-03-02T23:46:08.499Z,48.92
2023-03-02T23:48:16.983Z,45.47
2023-03-02T23:50:24.845Z,44.33
2023-03-02T23:52:32.665Z,52.35
2023-03-02T23:54:42.177Z,47.50
2023-03-02T23:56:52.755Z,50.58
2023-03-02T23:59:00.693Z,54.17
